createdAt,value
2023-01-23T00:00:23.280Z,1.93
2023-01-23T00:03:12.128Z,1.92
2023-01-23T00:05:41.021Z,1.87
2023-01-23T00:08:09.903Z,1.86
2023-01-23T00:10:39.462Z,1.85
2023-01-23T00:13:11.421Z,1.88
2023-01-23T00:15:40.969Z,1.90
2023-01-23T00:18:10.241Z,1.90
2023-01-23T00:20:39.620Z,1.88
2023-01-23T00:23:10.415Z,1.88
2023-01-23T00:25:39.663Z,1.89
2023-01-23T00:28:08.932Z,1.88
2023-01-23T00:30:38.009Z,1.87
2023-01-23T00:33:06.875Z,1.91
2023-01-23T00:35:36.067Z,1.96
2023-01-23T00:38:04.973Z,2.00
2023-01-23T00:40:35.304Z,2.01
2023-01-23T00:43:04.231Z,2.01
2023-01-23T00:45:33.169Z,1.98
2023-01-23T00:48:02.089Z,2.00
2023-01-23T00:50:30.921Z,2.00
2023-01-23T00:52:59.768Z,1.99
2023-01-23T00:55:28.624Z,1.96
2023-01-23T00:57:57.434Z,1.95
2023-01-23T01:00:28.928Z,1.97
2023-01-23T01:02:58.386Z,1.97
2023-01-23T01:05:27.604Z,1.94
2023-01-23T01:07:56.845Z,1.91
2023-01-23T01:10:29.342Z,1.87
2023-01-23T01:13:03.353Z,1.89
2023-01-23T01:15:32.748Z,1.89
2023-01-23T01:18:05.107Z,1.87
2023-01-23T01:20:34.081Z,1.85
2023-01-23T01:23:03.666Z,1.84
2023-01-23T01:25:32.688Z,1.87
2023-01-23T01:28:01.593Z,1.90
2023-01-23T01:30:30.481Z,1.92
2023-01-23T01:32:59.423Z,1.90
2023-01-23T01:35:28.284Z,1.90
2023-01-23T01:37:57.598Z,1.92
2023-01-23T01:40:32.366Z,1.92
2023-01-23T01:43:03.597Z,1.90
2023-01-23T01:46:04.030Z,1.87
2023-01-23T01:48:36.793Z,1.85
2023-01-23T01:51:11.728Z,1.82
2023-01-23T01:53:41.371Z,1.82
2023-01-23T01:56:14.071Z,1.81
2023-01-23T01:58:51.490Z,1.82
2023-01-23T02:01:20.876Z,1.85
2023-01-23T02:03:51.484Z,1.83
2023-01-23T02:06:21.334Z,1.81
2023-01-23T02:08:58.875Z,1.80
2023-01-23T02:11:28.828Z,1.82
2023-01-23T02:13:58.222Z,1.84
2023-01-23T02:16:30.705Z,1.86
2023-01-23T02:19:03.973Z,1.86
2023-01-23T02:21:34.771Z,1.85
2023-01-23T02:24:16.919Z,1.85
2023-01-23T02:26:48.558Z,1.83
2023-01-23T02:29:18.648Z,1.79
2023-01-23T02:31:52.779Z,1.75
2023-01-23T02:34:23.348Z,1.72
2023-01-23T02:36:56.327Z,1.72
2023-01-23T02:39:27.058Z,1.70
2023-01-23T02:41:59.800Z,1.69
2023-01-23T02:44:42.275Z,1.66
2023-01-23T02:47:13.927Z,1.61
2023-01-23T02:49:46.055Z,1.61
2023-01-23T02:52:16.202Z,1.61
2023-01-23T02:54:46.356Z,1.62
2023-01-23T02:57:16.952Z,1.60
2023-01-23T03:00:04.417Z,1.58
2023-01-23T03:02:39.422Z,1.58
2023-01-23T03:05:12.392Z,1.60
2023-01-23T03:07:42.279Z,1.63
2023-01-23T03:10:12.647Z,1.65
2023-01-23T03:12:44.862Z,1.66
2023-01-23T03:15:14.105Z,1.66
2023-01-23T03:17:43.058Z,1.68
2023-01-23T03:20:12.889Z,1.68
2023-01-23T03:22:41.964Z,1.70
2023-01-23T03:25:11.156Z,1.68
2023-01-23T03:27:42.156Z,1.71
2023-01-23T03:30:16.462Z,1.73
2023-01-23T03:32:46.984Z,1.75
2023-01-23T03:35:16.125Z,1.73
2023-01-23T03:37:46.170Z,1.69
2023-01-23T03:40:37.247Z,1.67
2023-01-23T03:43:06.773Z,1.66
2023-01-23T03:45:37.159Z,1.66
2023-01-23T03:48:11.535Z,1.67
2023-01-23T03:50:40.877Z,1.66
2023-01-23T03:53:09.848Z,1.68
2023-01-23T03:55:39.969Z,1.69
2023-01-23T03:58:08.383Z,1.70
2023-01-23T04:03:52.861Z,1.71
2023-01-23T04:06:24.085Z,1.68
2023-01-23T04:08:58.367Z,1.65
2023-01-23T04:11:54.161Z,1.66
2023-01-23T04:14:30.857Z,1.68
2023-01-23T04:17:04.298Z,1.69
2023-01-23T04:19:37.782Z,1.69
2023-01-23T04:22:13.651Z,1.68
2023-01-23T04:24:56.348Z,1.68
2023-01-23T04:27:32.497Z,1.68
2023-01-23T04:30:13.240Z,1.68
2023-01-23T04:32:50.207Z,1.65
2023-01-23T04:35:28.510Z,1.65
2023-01-23T04:38:05.287Z,1.66
2023-01-23T04:40:43.296Z,1.66
2023-01-23T04:43:20.466Z,1.67
2023-01-23T04:46:03.583Z,1.71
2023-01-23T04:48:58.093Z,1.70
2023-01-23T04:51:31.298Z,1.67
2023-01-23T04:54:06.930Z,1.66
2023-01-23T04:56:40.282Z,1.66
2023-01-23T04:59:18.252Z,1.65
2023-01-23T05:01:53.942Z,1.64
2023-01-23T05:04:27.096Z,1.63
2023-01-23T05:07:03.259Z,1.63
2023-01-23T05:09:40.241Z,1.62
2023-01-23T05:12:19.579Z,1.63
2023-01-23T05:14:52.684Z,1.64
2023-01-23T05:17:28.251Z,1.63
2023-01-23T05:20:01.772Z,1.63
2023-01-23T05:22:52.496Z,1.59
2023-01-23T05:25:29.189Z,1.57
2023-01-23T05:28:03.353Z,1.57
2023-01-23T05:30:36.787Z,1.60
2023-01-23T05:33:41.011Z,1.60
2023-01-23T05:36:13.684Z,1.59
2023-01-23T05:38:49.250Z,1.58
2023-01-23T05:41:29.796Z,1.58
2023-01-23T05:44:22.491Z,1.59
2023-01-23T05:47:02.255Z,1.63
2023-01-23T05:49:38.684Z,1.68
2023-01-23T05:52:12.260Z,1.71
2023-01-23T05:54:45.065Z,1.73
2023-01-23T05:57:19.170Z,1.74
2023-01-23T05:59:57.784Z,1.75
2023-01-23T06:02:50.992Z,1.75
2023-01-23T06:05:34.299Z,1.73
2023-01-23T06:08:18.040Z,1.69
2023-01-23T06:10:53.076Z,1.67
2023-01-23T06:13:26.501Z,1.65
2023-01-23T06:15:59.472Z,1.63
2023-01-23T06:18:35.307Z,1.63
2023-01-23T06:21:08.849Z,1.60
2023-01-23T06:23:44.301Z,1.59
2023-01-23T06:26:17.125Z,1.60
2023-01-23T06:28:55.077Z,1.61
2023-01-23T06:31:27.787Z,1.64
2023-01-23T06:34:03.988Z,1.65
2023-01-23T06:36:46.263Z,1.65
2023-01-23T06:39:21.041Z,1.65
2023-01-23T06:41:56.041Z,1.65
2023-01-23T06:44:29.248Z,1.70
2023-01-23T06:47:02.189Z,1.74
2023-01-23T06:49:36.854Z,1.76
2023-01-23T06:52:09.786Z,1.74
2023-01-23T06:54:43.075Z,1.75
2023-01-23T06:57:16.843Z,1.78
2023-01-23T06:59:50.270Z,1.80
2023-01-23T07:02:24.506Z,1.80
2023-01-23T07:04:57.572Z,1.81
2023-01-23T07:07:31.566Z,1.80
2023-01-23T07:10:03.922Z,1.80
2023-01-23T07:12:39.409Z,1.80
2023-01-23T07:15:14.246Z,1.80
2023-01-23T07:17:46.549Z,1.81
2023-01-23T07:20:19.872Z,1.84
2023-01-23T07:22:55.603Z,1.85
2023-01-23T07:25:29.112Z,1.87
2023-01-23T07:28:02.004Z,1.88
2023-01-23T07:30:34.747Z,1.86
2023-01-23T07:33:07.675Z,1.85
2023-01-23T07:35:41.689Z,1.87
2023-01-23T07:38:18.349Z,1.89
2023-01-23T07:40:50.894Z,1.92
2023-01-23T07:43:26.424Z,1.93
2023-01-23T07:46:01.466Z,1.92
2023-01-23T07:48:34.114Z,1.93
2023-01-23T07:51:07.504Z,1.94
2023-01-23T07:53:40.007Z,1.96
2023-01-23T07:56:13.589Z,1.97
2023-01-23T07:58:52.279Z,2.02
2023-01-23T08:01:24.559Z,2.05
2023-01-23T08:04:02.904Z,2.05
2023-01-23T08:06:35.277Z,2.04
2023-01-23T08:09:08.293Z,2.03
2023-01-23T08:11:41.113Z,2.04
2023-01-23T08:14:13.979Z,2.02
2023-01-23T08:16:49.508Z,2.05
2023-01-23T08:19:22.404Z,2.06
2023-01-23T08:21:54.931Z,2.08
2023-01-23T08:24:29.604Z,2.11
2023-01-23T08:27:02.109Z,2.13
2023-01-23T08:29:35.816Z,2.13
2023-01-23T08:32:08.570Z,2.15
2023-01-23T08:34:41.097Z,2.17
2023-01-23T08:37:13.391Z,2.18
2023-01-23T08:39:46.022Z,2.17
2023-01-23T08:42:18.396Z,2.17
2023-01-23T08:44:50.784Z,2.19
2023-01-23T08:47:23.883Z,2.21
2023-01-23T08:49:56.338Z,2.21
2023-01-23T08:52:31.259Z,2.23
2023-01-23T08:55:03.792Z,2.26
2023-01-23T08:57:36.191Z,2.26
2023-01-23T09:00:15.752Z,2.23
2023-01-23T09:02:48.104Z,2.23
2023-01-23T09:05:21.433Z,2.24
2023-01-23T09:07:56.446Z,2.23
2023-01-23T09:10:29.213Z,2.22
2023-01-23T09:13:03.572Z,2.22
2023-01-23T09:15:35.932Z,2.22
2023-01-23T09:18:08.975Z,2.23
2023-01-23T09:20:42.066Z,2.25
2023-01-23T09:23:14.990Z,2.26
2023-01-23T09:25:47.507Z,2.29
2023-01-23T09:28:20.252Z,2.34
2023-01-23T09:30:52.847Z,2.37
2023-01-23T09:33:27.403Z,2.40
2023-01-23T09:36:00.134Z,2.43
2023-01-23T09:38:34.235Z,2.46
2023-01-23T09:41:17.561Z,2.47
2023-01-23T09:43:58.689Z,2.45
2023-01-23T09:46:38.209Z,2.46
2023-01-23T09:49:18.485Z,2.46
2023-01-23T09:51:57.785Z,2.46
2023-01-23T09:54:43.381Z,2.47
2023-01-23T09:57:20.745Z,2.51
2023-01-23T10:00:01.109Z,2.51
2023-01-23T10:02:36.813Z,2.50
2023-01-23T10:05:16.981Z,2.49
2023-01-23T10:08:00.117Z,2.47
2023-01-23T10:10:52.314Z,2.46
2023-01-23T10:13:50.376Z,2.47
2023-01-23T10:16:48.799Z,2.50
2023-01-23T10:19:43.066Z,2.55
2023-01-23T10:22:30.729Z,2.58
2023-01-23T10:25:11.824Z,2.59
2023-01-23T10:27:49.654Z,2.62
2023-01-23T10:30:28.004Z,2.63
2023-01-23T10:33:14.293Z,2.67
2023-01-23T10:35:53.540Z,2.71
2023-01-23T10:38:32.346Z,2.74
2023-01-23T10:41:14.886Z,2.77
2023-01-23T10:43:51.199Z,2.79
2023-01-23T10:46:29.447Z,2.79
2023-01-23T10:49:03.666Z,2.82
2023-01-23T10:51:48.203Z,2.79
2023-01-23T10:54:33.119Z,2.79
2023-01-23T10:57:26.646Z,2.80
2023-01-23T11:00:04.556Z,2.82
2023-01-23T11:02:40.397Z,2.86
2023-01-23T11:05:51.996Z,2.88
2023-01-23T11:08:30.354Z,2.90
2023-01-23T11:11:24.236Z,2.92
2023-01-23T11:14:11.368Z,2.95
2023-01-23T11:16:44.006Z,2.99
2023-01-23T11:19:22.872Z,3.01
2023-01-23T11:21:57.932Z,3.04
2023-01-23T11:24:41.583Z,3.03
2023-01-23T11:27:24.419Z,2.99
2023-01-23T11:30:15.560Z,2.93
2023-01-23T11:32:55.474Z,2.88
2023-01-23T11:35:39.758Z,2.87
2023-01-23T11:38:15.541Z,2.86
2023-01-23T11:40:54.271Z,2.87
2023-01-23T11:43:27.723Z,2.86
2023-01-23T11:46:34.980Z,2.84
2023-01-23T11:49:27.189Z,2.84
2023-01-23T11:52:15.055Z,2.87
2023-01-23T11:55:05.048Z,2.89
2023-01-23T11:57:48.138Z,2.85
2023-01-23T12:00:34.277Z,2.86
2023-01-23T12:03:35.021Z,2.89
2023-01-23T12:06:22.565Z,2.90
2023-01-23T12:09:03.636Z,2.92
2023-01-23T12:11:46.303Z,2.91
2023-01-23T12:14:28.391Z,2.88
2023-01-23T12:17:16.915Z,2.88
2023-01-23T12:20:11.813Z,2.86
2023-01-23T12:22:55.594Z,2.84
2023-01-23T12:25:35.324Z,2.81
2023-01-23T12:28:25.463Z,2.84
2023-01-23T12:31:15.898Z,2.91
2023-01-23T12:34:08.640Z,2.94
2023-01-23T12:37:11.790Z,2.91
2023-01-23T12:40:02.129Z,2.91
2023-01-23T12:42:44.308Z,2.93
2023-01-23T12:45:24.454Z,2.97
2023-01-23T12:48:04.962Z,2.97
2023-01-23T12:50:46.743Z,2.93
2023-01-23T12:53:22.300Z,2.90
2023-01-23T12:56:03.088Z,2.95
2023-01-23T12:58:41.303Z,2.94
2023-01-23T13:01:33.985Z,2.90
2023-01-23T13:04:23.671Z,2.87
2023-01-23T13:07:17.447Z,2.88
2023-01-23T13:10:12.505Z,2.85
2023-01-23T13:12:45.990Z,2.84
2023-01-23T13:15:40.379Z,2.85
2023-01-23T13:18:30.059Z,2.87
2023-01-23T13:21:22.549Z,2.89
2023-01-23T13:24:35.040Z,2.89
2023-01-23T13:27:50.514Z,2.91
2023-01-23T13:30:44.481Z,2.94
2023-01-23T13:33:58.787Z,2.94
2023-01-23T13:36:38.811Z,2.85
2023-01-23T13:39:30.581Z,2.83
2023-01-23T13:42:36.930Z,2.80
2023-01-23T13:45:32.659Z,2.77
2023-01-23T14:21:52.356Z,2.41
2023-01-23T14:24:29.285Z,2.41
2023-01-23T14:27:11.591Z,2.44
2023-01-23T14:29:46.149Z,2.47
2023-01-23T14:32:27.041Z,2.49
2023-01-23T14:34:59.465Z,2.48
2023-01-23T14:37:35.992Z,2.49
2023-01-23T14:40:25.894Z,2.50
2023-01-23T14:43:08.044Z,2.51
2023-01-23T14:45:40.931Z,2.52
2023-01-23T14:48:21.686Z,2.49
2023-01-23T14:51:06.222Z,2.48
2023-01-23T14:53:42.827Z,2.46
2023-01-23T14:56:15.469Z,2.40
2023-01-23T14:58:49.526Z,2.37
2023-01-23T15:01:23.049Z,2.37
2023-01-23T15:04:05.593Z,2.34
2023-01-23T15:06:38.844Z,2.33
2023-01-23T15:09:19.033Z,2.28
2023-01-23T15:11:51.509Z,2.28
2023-01-23T15:14:29.170Z,2.28
2023-01-23T15:17:07.322Z,2.28
2023-01-23T15:19:42.175Z,2.28
2023-01-23T15:22:22.458Z,2.29
2023-01-23T15:24:55.892Z,2.30
2023-01-23T15:27:33.140Z,2.30
2023-01-23T15:30:38.298Z,2.31
2023-01-23T15:33:27.552Z,2.35
2023-01-23T15:36:07.502Z,2.32
2023-01-23T15:38:39.827Z,2.28
2023-01-23T15:41:12.883Z,2.29
2023-01-23T15:43:45.155Z,2.32
2023-01-23T15:46:17.583Z,2.35
2023-01-23T15:48:50.019Z,2.35
2023-01-23T15:51:22.676Z,2.36
2023-01-23T15:53:56.377Z,2.33
2023-01-23T15:56:31.901Z,2.30
2023-01-23T15:59:10.386Z,2.30
2023-01-23T16:01:43.769Z,2.29
2023-01-23T16:04:17.535Z,2.29
2023-01-23T16:06:50.210Z,2.30
2023-01-23T16:09:30.885Z,2.32
2023-01-23T16:12:04.193Z,2.34
2023-01-23T16:14:36.593Z,2.32
2023-01-23T16:17:16.704Z,2.26
2023-01-23T16:19:50.796Z,2.18
2023-01-23T16:22:29.337Z,2.17
2023-01-23T16:25:02.026Z,2.17
2023-01-23T16:27:34.444Z,2.18
2023-01-23T16:30:08.095Z,2.17
2023-01-23T16:32:40.435Z,2.14
2023-01-23T16:35:14.635Z,2.10
2023-01-23T16:37:49.910Z,2.09
2023-01-23T16:40:25.107Z,2.07
2023-01-23T16:43:02.806Z,2.05
2023-01-23T16:45:35.404Z,2.08
2023-01-23T16:48:12.928Z,2.09
2023-01-23T16:50:52.518Z,2.06
2023-01-23T16:53:27.523Z,2.07
2023-01-23T16:56:01.786Z,2.07
2023-01-23T16:58:38.408Z,2.06
2023-01-23T17:01:20.563Z,2.05
2023-01-23T17:03:59.185Z,2.02
2023-01-23T17:06:32.130Z,2.02
2023-01-23T17:09:04.716Z,2.03
2023-01-23T17:11:41.065Z,2.04
2023-01-23T17:14:17.617Z,2.03
2023-01-23T17:16:51.235Z,2.03
2023-01-23T17:19:30.897Z,2.04
2023-01-23T17:22:06.301Z,2.03
2023-01-23T17:24:39.147Z,1.98
2023-01-23T17:27:11.429Z,1.95
2023-01-23T17:29:43.770Z,1.95
2023-01-23T17:32:27.944Z,1.96
2023-01-23T17:35:03.295Z,1.97
2023-01-23T17:37:37.317Z,2.00
2023-01-23T17:40:14.615Z,2.01
2023-01-23T17:42:47.057Z,2.00
2023-01-23T17:45:21.825Z,2.02
2023-01-23T17:47:56.125Z,2.04
2023-01-23T17:50:29.206Z,2.04
2023-01-23T17:53:01.402Z,2.07
2023-01-23T17:55:33.706Z,2.08
2023-01-23T17:58:05.945Z,2.07
2023-01-23T18:00:39.245Z,2.08
2023-01-23T18:03:16.195Z,2.07
2023-01-23T18:05:48.573Z,2.08
2023-01-23T18:08:22.801Z,2.10
2023-01-23T18:10:57.161Z,2.12
2023-01-23T18:13:38.307Z,2.15
2023-01-23T18:16:15.445Z,2.17
2023-01-23T18:18:53.082Z,2.17
2023-01-23T18:21:26.252Z,2.13
2023-01-23T18:23:59.421Z,2.07
2023-01-23T18:26:44.717Z,2.06
2023-01-23T18:29:28.560Z,2.05
2023-01-23T18:32:36.671Z,2.08
2023-01-23T18:35:25.528Z,2.09
2023-01-23T18:38:09.056Z,2.10
2023-01-23T18:40:49.686Z,2.12
2023-01-23T18:43:35.228Z,2.12
2023-01-23T18:46:13.138Z,2.10
2023-01-23T18:48:47.125Z,2.10
2023-01-23T18:51:38.527Z,2.10
2023-01-23T18:54:26.994Z,2.07
2023-01-23T18:57:13.714Z,2.02
2023-01-23T18:59:55.129Z,1.99
2023-01-23T19:02:36.031Z,1.99
2023-01-23T19:05:27.486Z,1.99
2023-01-23T19:08:01.033Z,1.99
2023-01-23T19:10:48.463Z,2.00
2023-01-23T19:13:24.966Z,1.98
2023-01-23T19:16:06.180Z,1.98
2023-01-23T19:18:50.150Z,1.98
2023-01-23T19:21:26.826Z,1.98
2023-01-23T19:24:03.068Z,1.98
2023-01-23T19:26:38.413Z,2.01
2023-01-23T19:29:22.860Z,2.04
2023-01-23T19:32:05.233Z,2.07
2023-01-23T19:34:38.346Z,2.08
2023-01-23T19:37:10.734Z,2.05
2023-01-23T19:39:43.685Z,2.03
2023-01-23T19:42:17.020Z,2.03
2023-01-23T19:44:49.410Z,2.01
2023-01-23T19:47:21.735Z,2.02
2023-01-23T19:49:54.220Z,2.01
2023-01-23T19:52:26.787Z,2.03
2023-01-23T19:55:01.849Z,2.02
2023-01-23T19:57:36.355Z,2.00
2023-01-23T20:00:14.460Z,1.97
2023-01-23T20:02:46.895Z,1.95
2023-01-23T20:05:19.538Z,1.93
2023-01-23T20:07:55.018Z,1.93
2023-01-23T20:10:32.217Z,1.95
2023-01-23T20:13:05.306Z,1.97
2023-01-23T20:15:37.738Z,1.98
2023-01-23T20:18:11.966Z,1.97
2023-01-23T20:20:44.737Z,1.97
2023-01-23T20:23:17.307Z,1.94
2023-01-23T20:25:59.490Z,1.93
2023-01-23T20:28:32.569Z,1.93
2023-01-23T20:31:12.336Z,1.95
2023-01-23T20:33:45.297Z,1.95
2023-01-23T20:36:17.951Z,1.96
2023-01-23T20:38:50.998Z,1.96
2023-01-23T20:41:23.794Z,2.00
2023-01-23T20:43:57.411Z,1.98
2023-01-23T20:46:31.274Z,1.98
2023-01-23T20:49:03.669Z,2.00
2023-01-23T20:51:36.346Z,2.00
2023-01-23T20:54:09.118Z,1.98
2023-01-23T20:56:41.509Z,2.00
2023-01-23T20:59:23.543Z,2.01
2023-01-23T21:02:13.374Z,2.02
2023-01-23T21:04:46.629Z,2.02
2023-01-23T21:07:21.409Z,2.00
2023-01-23T21:09:55.937Z,1.98
2023-01-23T21:12:28.378Z,1.99
2023-01-23T21:15:03.423Z,2.01
2023-01-23T21:17:36.008Z,2.02
2023-01-23T21:20:12.860Z,2.00
2023-01-23T21:22:51.496Z,1.99
2023-01-23T21:25:24.077Z,1.97
2023-01-23T21:27:57.180Z,1.96
2023-01-23T21:30:36.192Z,1.98
2023-01-23T21:33:10.418Z,1.96
2023-01-23T21:35:50.875Z,1.97
2023-01-23T21:38:26.220Z,1.98
2023-01-23T21:40:59.237Z,1.98
2023-01-23T21:43:31.855Z,1.99
2023-01-23T21:46:04.918Z,1.97
2023-01-23T21:48:38.194Z,1.95
2023-01-23T21:51:12.656Z,1.95
2023-01-23T21:53:47.709Z,1.95
2023-01-23T21:56:25.079Z,1.94
2023-01-23T21:58:57.480Z,1.94
2023-01-23T22:01:42.685Z,1.92
2023-01-23T22:04:18.399Z,1.91
2023-01-23T22:06:55.650Z,1.92
2023-01-23T22:09:29.455Z,1.91
2023-01-23T22:12:02.724Z,1.94
2023-01-23T22:14:38.637Z,1.94
2023-01-23T22:17:14.246Z,1.93
2023-01-23T22:19:46.904Z,1.90
2023-01-23T22:22:20.331Z,1.88
2023-01-23T22:24:53.140Z,1.85
2023-01-23T22:27:25.635Z,1.86
2023-01-23T22:29:58.160Z,1.88
2023-01-23T22:32:33.500Z,1.89
2023-01-23T22:35:08.305Z,1.88
2023-01-23T22:37:44.418Z,1.88
2023-01-23T22:40:19.765Z,1.90
2023-01-23T22:42:53.036Z,1.88
2023-01-23T22:45:28.821Z,1.86
2023-01-23T22:48:01.338Z,1.85
2023-01-23T22:50:33.736Z,1.87
2023-01-23T22:53:07.227Z,1.89
2023-01-23T22:55:41.837Z,1.91
2023-01-23T22:58:16.620Z,1.92
2023-01-23T23:04:03.151Z,1.93
2023-01-23T23:06:35.681Z,1.92
2023-01-23T23:09:10.008Z,1.95
2023-01-23T23:11:44.155Z,1.94
2023-01-23T23:14:16.931Z,1.93
2023-01-23T23:16:49.484Z,1.92
2023-01-23T23:19:21.817Z,1.94
2023-01-23T23:21:54.258Z,1.94
2023-01-23T23:24:27.338Z,1.94
2023-01-23T23:26:59.881Z,1.94
2023-01-23T23:29:33.029Z,1.96
2023-01-23T23:32:05.602Z,1.97
2023-01-23T23:34:38.837Z,1.98
2023-01-23T23:37:11.391Z,1.95
2023-01-23T23:39:44.289Z,1.93
2023-01-23T23:42:16.690Z,1.93
2023-01-23T23:44:49.101Z,1.91
2023-01-23T23:47:25.144Z,1.92
2023-01-23T23:49:57.819Z,1.93
2023-01-23T23:52:30.242Z,1.94
2023-01-23T23:55:03.202Z,1.93
2023-01-23T23:57:35.836Z,1.92
